sensor_id;sensor_type;location;lat;lon;timestamp;P1;durP1;ratioP1;P2;durP2;ratioP2
15094;SDS011;7648;52.264;9.632;2023-04-24T00:01:31;0.50;;;0.50;;
15094;SDS011;7648;52.264;9.632;2023-04-24T00:05:35;0.80;;;0.80;;
15094;SDS011;7648;52.264;9.632;2023-04-24T00:09:37;0.70;;;0.70;;
15094;SDS011;7648;52.264;9.632;2023-04-24T00:13:39;0.70;;;0.70;;
15094;SDS011;7648;52.264;9.632;2023-04-24T00:17:41;0.70;;;0.70;;
15094;SDS011;7648;52.264;9.632;2023-04-24T00:21:44;0.80;;;0.80;;
15094;SDS011;7648;52.264;9.632;2023-04-24T00:25:46;1.37;;;0.70;;
15094;SDS011;7648;52.264;9.632;2023-04-24T00:29:48;0.73;;;0.73;;
15094;SDS011;7648;52.264;9.632;2023-04-24T00:33:50;0.73;;;0.70;;
15094;SDS011;7648;52.264;9.632;2023-04-24T00:37:53;0.80;;;0.80;;
15094;SDS011;7648;52.264;9.632;2023-04-24T00:41:55;0.87;;;0.87;;
15094;SDS011;7648;52.264;9.632;2023-04-24T00:45:57;0.60;;;0.60;;
15094;SDS011;7648;52.264;9.632;2023-04-24T00:50:02;0.70;;;0.70;;
15094;SDS011;7648;52.264;9.632;2023-04-24T00:54:05;0.80;;;0.80;;
15094;SDS011;7648;52.264;9.632;2023-04-24T00:58:07;0.80;;;0.80;;
15094;SDS011;7648;52.264;9.632;2023-04-24T01:02:09;1.37;;;0.60;;
15094;SDS011;7648;52.264;9.632;2023-04-24T01:06:12;1.00;;;0.90;;
15094;SDS011;7648;52.264;9.632;2023-04-24T01:10:16;0.60;;;0.60;;
15094;SDS011;7648;52.264;9.632;2023-04-24T01:14:20;1.20;;;0.60;;
15094;SDS011;7648;52.264;9.632;2023-04-24T01:18:23;0.60;;;0.60;;
15094;SDS011;7648;52.264;9.632;2023-04-24T01:22:26;0.67;;;0.67;;
15094;SDS011;7648;52.264;9.632;2023-04-24T01:26:28;0.70;;;0.70;;
15094;SDS011;7648;52.264;9.632;2023-04-24T01:30:30;0.80;;;0.80;;
15094;SDS011;7648;52.264;9.632;2023-04-24T01:34:32;0.63;;;0.50;;
15094;SDS011;7648;52.264;9.632;2023-04-24T01:38:36;0.77;;;0.60;;
15094;SDS011;7648;52.264;9.632;2023-04-24T01:42:38;0.60;;;0.60;;
15094;SDS011;7648;52.264;9.632;2023-04-24T01:46:42;0.60;;;0.60;;
15094;SDS011;7648;52.264;9.632;2023-04-24T01:50:44;0.70;;;0.70;;
15094;SDS011;7648;52.264;9.632;2023-04-24T01:54:47;0.80;;;0.80;;
15094;SDS011;7648;52.264;9.632;2023-04-24T01:58:50;0.60;;;0.60;;
15094;SDS011;7648;52.264;9.632;2023-04-24T02:02:54;0.60;;;0.60;;
15094;SDS011;7648;52.264;9.632;2023-04-24T02:06:56;0.80;;;0.80;;
15094;SDS011;7648;52.264;9.632;2023-04-24T02:11:00;0.73;;;0.73;;
15094;SDS011;7648;52.264;9.632;2023-04-24T02:15:02;0.67;;;0.67;;
15094;SDS011;7648;52.264;9.632;2023-04-24T02:19:05;0.70;;;0.70;;
15094;SDS011;7648;52.264;9.632;2023-04-24T02:23:07;0.80;;;0.80;;
15094;SDS011;7648;52.264;9.632;2023-04-24T02:27:10;0.60;;;0.60;;
15094;SDS011;7648;52.264;9.632;2023-04-24T02:31:12;1.07;;;0.70;;
15094;SDS011;7648;52.264;9.632;2023-04-24T02:35:14;0.60;;;0.60;;
15094;SDS011;7648;52.264;9.632;2023-04-24T02:39:16;0.57;;;0.57;;
15094;SDS011;7648;52.264;9.632;2023-04-24T02:43:20;0.60;;;0.60;;
15094;SDS011;7648;52.264;9.632;2023-04-24T02:47:22;0.70;;;0.70;;
15094;SDS011;7648;52.264;9.632;2023-04-24T02:51:23;0.50;;;0.50;;
15094;SDS011;7648;52.264;9.632;2023-04-24T02:55:25;0.70;;;0.70;;
15094;SDS011;7648;52.264;9.632;2023-04-24T02:59:29;0.83;;;0.83;;
15094;SDS011;7648;52.264;9.632;2023-04-24T03:03:32;0.80;;;0.80;;
15094;SDS011;7648;52.264;9.632;2023-04-24T03:07:33;0.60;;;0.60;;
15094;SDS011;7648;52.264;9.632;2023-04-24T03:11:35;0.70;;;0.70;;
15094;SDS011;7648;52.264;9.632;2023-04-24T03:15:39;0.70;;;0.70;;
15094;SDS011;7648;52.264;9.632;2023-04-24T03:19:40;0.70;;;0.70;;
15094;SDS011;7648;52.264;9.632;2023-04-24T03:23:44;0.60;;;0.60;;
15094;SDS011;7648;52.264;9.632;2023-04-24T03:27:46;0.70;;;0.70;;
15094;SDS011;7648;52.264;9.632;2023-04-24T03:32:02;0.70;;;0.70;;
15094;SDS011;7648;52.264;9.632;2023-04-24T03:36:04;0.87;;;0.87;;
15094;SDS011;7648;52.264;9.632;2023-04-24T03:40:13;0.60;;;0.60;;
15094;SDS011;7648;52.264;9.632;2023-04-24T03:44:15;0.67;;;0.60;;
15094;SDS011;7648;52.264;9.632;2023-04-24T03:48:18;0.97;;;0.97;;
15094;SDS011;7648;52.264;9.632;2023-04-24T03:52:20;0.60;;;0.60;;
15094;SDS011;7648;52.264;9.632;2023-04-24T03:56:23;1.13;;;0.70;;
15094;SDS011;7648;52.264;9.632;2023-04-24T04:00:25;0.70;;;0.70;;
15094;SDS011;7648;52.264;9.632;2023-04-24T04:04:46;0.93;;;0.73;;
15094;SDS011;7648;52.264;9.632;2023-04-24T04:08:48;0.43;;;0.43;;
15094;SDS011;7648;52.264;9.632;2023-04-24T04:12:50;0.60;;;0.60;;
15094;SDS011;7648;52.264;9.632;2023-04-24T04:16:52;0.80;;;0.80;;
15094;SDS011;7648;52.264;9.632;2023-04-24T04:20:55;0.60;;;0.60;;
15094;SDS011;7648;52.264;9.632;2023-04-24T04:24:57;1.10;;;0.63;;
15094;SDS011;7648;52.264;9.632;2023-04-24T04:29:01;1.20;;;0.67;;
15094;SDS011;7648;52.264;9.632;2023-04-24T04:33:04;0.83;;;0.80;;
15094;SDS011;7648;52.264;9.632;2023-04-24T04:37:09;0.70;;;0.70;;
15094;SDS011;7648;52.264;9.632;2023-04-24T04:41:33;0.60;;;0.60;;
15094;SDS011;7648;52.264;9.632;2023-04-24T04:45:36;0.80;;;0.80;;
15094;SDS011;7648;52.264;9.632;2023-04-24T04:50:01;0.60;;;0.60;;
15094;SDS011;7648;52.264;9.632;2023-04-24T04:54:07;0.50;;;0.50;;
15094;SDS011;7648;52.264;9.632;2023-04-24T04:58:10;0.57;;;0.57;;
15094;SDS011;7648;52.264;9.632;2023-04-24T05:02:12;1.17;;;0.70;;
15094;SDS011;7648;52.264;9.632;2023-04-24T05:06:14;0.73;;;0.73;;
15094;SDS011;7648;52.264;9.632;2023-04-24T05:10:20;0.80;;;0.80;;
15094;SDS011;7648;52.264;9.632;2023-04-24T05:14:24;0.80;;;0.80;;
15094;SDS011;7648;52.264;9.632;2023-04-24T05:18:26;0.57;;;0.50;;
15094;SDS011;7648;52.264;9.632;2023-04-24T05:22:28;0.80;;;0.80;;
15094;SDS011;7648;52.264;9.632;2023-04-24T05:26:32;1.23;;;1.10;;
15094;SDS011;7648;52.264;9.632;2023-04-24T05:30:34;0.80;;;0.80;;
15094;SDS011;7648;52.264;9.632;2023-04-24T05:34:36;1.00;;;1.00;;
15094;SDS011;7648;52.264;9.632;2023-04-24T05:38:38;1.20;;;1.20;;
15094;SDS011;7648;52.264;9.632;2023-04-24T05:42:41;1.50;;;1.40;;
15094;SDS011;7648;52.264;9.632;2023-04-24T05:46:43;1.33;;;1.23;;
15094;SDS011;7648;52.264;9.632;2023-04-24T05:50:46;1.60;;;1.10;;
15094;SDS011;7648;52.264;9.632;2023-04-24T05:54:48;1.30;;;1.20;;
15094;SDS011;7648;52.264;9.632;2023-04-24T05:58:57;0.80;;;0.80;;
15094;SDS011;7648;52.264;9.632;2023-04-24T06:02:59;0.90;;;0.90;;
15094;SDS011;7648;52.264;9.632;2023-04-24T06:07:04;1.00;;;1.00;;
15094;SDS011;7648;52.264;9.632;2023-04-24T06:11:06;0.93;;;0.93;;
15094;SDS011;7648;52.264;9.632;2023-04-24T06:15:11;1.00;;;1.00;;
15094;SDS011;7648;52.264;9.632;2023-04-24T06:19:29;1.30;;;1.30;;
15094;SDS011;7648;52.264;9.632;2023-04-24T06:23:31;1.30;;;1.30;;
15094;SDS011;7648;52.264;9.632;2023-04-24T06:27:33;1.27;;;1.27;;
15094;SDS011;7648;52.264;9.632;2023-04-24T06:31:37;1.23;;;1.23;;
15094;SDS011;7648;52.264;9.632;2023-04-24T06:35:39;1.20;;;1.20;;
15094;SDS011;7648;52.264;9.632;2023-04-24T06:39:40;1.30;;;1.30;;
15094;SDS011;7648;52.264;9.632;2023-04-24T06:43:42;1.33;;;1.33;;
15094;SDS011;7648;52.264;9.632;2023-04-24T06:47:46;1.80;;;1.70;;
15094;SDS011;7648;52.264;9.632;2023-04-24T06:51:48;2.10;;;2.00;;
15094;SDS011;7648;52.264;9.632;2023-04-24T06:55:50;4.17;;;2.60;;
15094;SDS011;7648;52.264;9.632;2023-04-24T06:59:51;3.27;;;3.07;;
15094;SDS011;7648;52.264;9.632;2023-04-24T07:03:54;3.60;;;3.30;;
15094;SDS011;7648;52.264;9.632;2023-04-24T07:07:56;3.70;;;3.50;;
15094;SDS011;7648;52.264;9.632;2023-04-24T07:11:59;4.03;;;3.83;;
15094;SDS011;7648;52.264;9.632;2023-04-24T07:16:01;4.23;;;3.93;;
15094;SDS011;7648;52.264;9.632;2023-04-24T07:20:05;3.67;;;3.47;;
15094;SDS011;7648;52.264;9.632;2023-04-24T07:24:09;3.80;;;3.50;;
15094;SDS011;7648;52.264;9.632;2023-04-24T07:28:12;4.40;;;4.00;;
15094;SDS011;7648;52.264;9.632;2023-04-24T07:32:14;4.77;;;4.17;;
15094;SDS011;7648;52.264;9.632;2023-04-24T07:36:17;4.20;;;3.90;;
15094;SDS011;7648;52.264;9.632;2023-04-24T07:40:20;4.77;;;4.37;;
15094;SDS011;7648;52.264;9.632;2023-04-24T07:44:22;4.60;;;4.10;;
15094;SDS011;7648;52.264;9.632;2023-04-24T07:48:24;4.90;;;4.53;;
15094;SDS011;7648;52.264;9.632;2023-04-24T07:52:27;4.97;;;4.57;;
15094;SDS011;7648;52.264;9.632;2023-04-24T07:56:30;4.20;;;3.90;;
15094;SDS011;7648;52.264;9.632;2023-04-24T08:00:32;4.50;;;4.10;;
15094;SDS011;7648;52.264;9.632;2023-04-24T08:04:34;5.87;;;3.93;;
15094;SDS011;7648;52.264;9.632;2023-04-24T08:08:37;4.67;;;4.37;;
15094;SDS011;7648;52.264;9.632;2023-04-24T08:12:39;4.87;;;4.43;;
15094;SDS011;7648;52.264;9.632;2023-04-24T08:16:41;4.80;;;4.40;;
15094;SDS011;7648;52.264;9.632;2023-04-24T08:20:43;4.97;;;4.57;;
15094;SDS011;7648;52.264;9.632;2023-04-24T08:24:47;4.83;;;4.33;;
15094;SDS011;7648;52.264;9.632;2023-04-24T08:28:49;4.30;;;3.90;;
15094;SDS011;7648;52.264;9.632;2023-04-24T08:32:51;4.37;;;4.07;;
15094;SDS011;7648;52.264;9.632;2023-04-24T08:36:53;4.27;;;3.97;;
15094;SDS011;7648;52.264;9.632;2023-04-24T08:40:58;4.97;;;4.17;;
15094;SDS011;7648;52.264;9.632;2023-04-24T08:45:01;4.27;;;3.97;;
15094;SDS011;7648;52.264;9.632;2023-04-24T08:49:02;3.63;;;3.33;;
15094;SDS011;7648;52.264;9.632;2023-04-24T08:53:05;2.40;;;2.30;;
15094;SDS011;7648;52.264;9.632;2023-04-24T08:57:09;2.30;;;2.20;;
15094;SDS011;7648;52.264;9.632;2023-04-24T09:01:12;2.80;;;2.60;;
15094;SDS011;7648;52.264;9.632;2023-04-24T09:05:15;2.80;;;2.60;;
15094;SDS011;7648;52.264;9.632;2023-04-24T09:09:18;3.00;;;2.80;;
15094;SDS011;7648;52.264;9.632;2023-04-24T09:13:21;2.80;;;2.60;;
15094;SDS011;7648;52.264;9.632;2023-04-24T09:17:23;2.97;;;2.77;;
15094;SDS011;7648;52.264;9.632;2023-04-24T09:21:31;2.77;;;2.57;;
15094;SDS011;7648;52.264;9.632;2023-04-24T09:25:34;3.33;;;3.07;;
15094;SDS011;7648;52.264;9.632;2023-04-24T09:29:38;2.93;;;2.83;;
15094;SDS011;7648;52.264;9.632;2023-04-24T09:33:40;3.17;;;2.97;;
15094;SDS011;7648;52.264;9.632;2023-04-24T09:37:54;2.93;;;2.73;;
15094;SDS011;7648;52.264;9.632;2023-04-24T09:41:59;3.30;;;3.10;;
15094;SDS011;7648;52.264;9.632;2023-04-24T09:46:06;3.23;;;2.90;;
15094;SDS011;7648;52.264;9.632;2023-04-24T09:50:10;2.60;;;2.47;;
15094;SDS011;7648;52.264;9.632;2023-04-24T09:54:14;3.07;;;2.87;;
15094;SDS011;7648;52.264;9.632;2023-04-24T09:58:17;2.20;;;2.10;;
15094;SDS011;7648;52.264;9.632;2023-04-24T10:02:21;3.53;;;2.10;;
15094;SDS011;7648;52.264;9.632;2023-04-24T10:06:23;2.63;;;2.53;;
15094;SDS011;7648;52.264;9.632;2023-04-24T10:10:33;2.60;;;2.40;;
15094;SDS011;7648;52.264;9.632;2023-04-24T10:14:37;2.37;;;2.27;;
15094;SDS011;7648;52.264;9.632;2023-04-24T10:18:40;2.10;;;2.00;;
15094;SDS011;7648;52.264;9.632;2023-04-24T10:22:43;1.77;;;1.67;;
15094;SDS011;7648;52.264;9.632;2023-04-24T10:26:48;2.20;;;1.70;;
15094;SDS011;7648;52.264;9.632;2023-04-24T10:30:50;2.00;;;1.90;;
15094;SDS011;7648;52.264;9.632;2023-04-24T10:34:56;1.90;;;1.80;;
15094;SDS011;7648;52.264;9.632;2023-04-24T10:38:58;2.00;;;1.90;;
15094;SDS011;7648;52.264;9.632;2023-04-24T10:43:03;1.97;;;1.87;;
15094;SDS011;7648;52.264;9.632;2023-04-24T10:47:07;2.00;;;1.90;;
15094;SDS011;7648;52.264;9.632;2023-04-24T10:51:16;2.07;;;1.97;;
15094;SDS011;7648;52.264;9.632;2023-04-24T10:59:46;1.50;;;1.40;;
15094;SDS011;7648;52.264;9.632;2023-04-24T11:03:50;1.10;;;1.10;;
15094;SDS011;7648;52.264;9.632;2023-04-24T11:08:12;1.77;;;1.63;;
15094;SDS011;7648;52.264;9.632;2023-04-24T11:12:16;1.60;;;1.50;;
15094;SDS011;7648;52.264;9.632;2023-04-24T11:16:25;1.57;;;1.47;;
15094;SDS011;7648;52.264;9.632;2023-04-24T11:20:29;1.60;;;1.50;;
15094;SDS011;7648;52.264;9.632;2023-04-24T11:24:36;1.23;;;1.13;;
15094;SDS011;7648;52.264;9.632;2023-04-24T11:28:46;1.60;;;1.50;;
15094;SDS011;7648;52.264;9.632;2023-04-24T11:32:50;0.87;;;0.87;;
15094;SDS011;7648;52.264;9.632;2023-04-24T11:36:52;1.00;;;1.00;;
15094;SDS011;7648;52.264;9.632;2023-04-24T11:40:56;0.87;;;0.87;;
15094;SDS011;7648;52.264;9.632;2023-04-24T11:44:59;0.80;;;0.80;;
15094;SDS011;7648;52.264;9.632;2023-04-24T11:49:02;1.20;;;0.90;;
15094;SDS011;7648;52.264;9.632;2023-04-24T11:53:03;0.77;;;0.77;;
15094;SDS011;7648;52.264;9.632;2023-04-24T11:57:07;1.00;;;1.00;;
15094;SDS011;7648;52.264;9.632;2023-04-24T12:01:08;1.27;;;0.97;;
15094;SDS011;7648;52.264;9.632;2023-04-24T12:05:18;0.77;;;0.77;;
15094;SDS011;7648;52.264;9.632;2023-04-24T12:09:21;0.60;;;0.60;;
15094;SDS011;7648;52.264;9.632;2023-04-24T12:13:24;0.63;;;0.63;;
15094;SDS011;7648;52.264;9.632;2023-04-24T12:17:27;1.30;;;0.70;;
15094;SDS011;7648;52.264;9.632;2023-04-24T12:21:30;0.63;;;0.63;;
15094;SDS011;7648;52.264;9.632;2023-04-24T12:25:32;1.13;;;0.60;;
15094;SDS011;7648;52.264;9.632;2023-04-24T12:29:36;0.73;;;0.73;;
15094;SDS011;7648;52.264;9.632;2023-04-24T12:33:38;0.67;;;0.67;;
15094;SDS011;7648;52.264;9.632;2023-04-24T12:37:41;0.60;;;0.60;;
15094;SDS011;7648;52.264;9.632;2023-04-24T12:41:50;0.57;;;0.57;;
15094;SDS011;7648;52.264;9.632;2023-04-24T12:45:59;0.90;;;0.90;;
15094;SDS011;7648;52.264;9.632;2023-04-24T12:50:01;0.77;;;0.77;;
15094;SDS011;7648;52.264;9.632;2023-04-24T12:54:03;1.07;;;1.07;;
15094;SDS011;7648;52.264;9.632;2023-04-24T12:58:06;1.07;;;1.07;;
15094;SDS011;7648;52.264;9.632;2023-04-24T13:02:09;0.80;;;0.80;;
15094;SDS011;7648;52.264;9.632;2023-04-24T13:06:11;0.93;;;0.93;;
15094;SDS011;7648;52.264;9.632;2023-04-24T13:10:13;1.00;;;1.00;;
15094;SDS011;7648;52.264;9.632;2023-04-24T13:14:15;1.00;;;1.00;;
15094;SDS011;7648;52.264;9.632;2023-04-24T13:18:18;0.90;;;0.90;;
15094;SDS011;7648;52.264;9.632;2023-04-24T13:22:20;1.00;;;1.00;;
15094;SDS011;7648;52.264;9.632;2023-04-24T13:26:22;0.57;;;0.57;;
15094;SDS011;7648;52.264;9.632;2023-04-24T13:30:24;0.73;;;0.73;;
15094;SDS011;7648;52.264;9.632;2023-04-24T13:34:27;1.60;;;0.57;;
15094;SDS011;7648;52.264;9.632;2023-04-24T13:38:29;0.53;;;0.53;;
15094;SDS011;7648;52.264;9.632;2023-04-24T13:42:30;0.40;;;0.40;;
15094;SDS011;7648;52.264;9.632;2023-04-24T13:46:32;0.70;;;0.70;;
15094;SDS011;7648;52.264;9.632;2023-04-24T13:50:36;0.37;;;0.37;;
15094;SDS011;7648;52.264;9.632;2023-04-24T13:54:37;0.50;;;0.50;;
15094;SDS011;7648;52.264;9.632;2023-04-24T13:58:39;0.47;;;0.47;;
15094;SDS011;7648;52.264;9.632;2023-04-24T14:02:41;0.60;;;0.60;;
15094;SDS011;7648;52.264;9.632;2023-04-24T14:06:44;0.60;;;0.60;;
15094;SDS011;7648;52.264;9.632;2023-04-24T14:10:46;0.60;;;0.60;;
15094;SDS011;7648;52.264;9.632;2023-04-24T14:14:48;0.77;;;0.77;;
15094;SDS011;7648;52.264;9.632;2023-04-24T14:18:50;0.60;;;0.60;;
15094;SDS011;7648;52.264;9.632;2023-04-24T14:22:53;1.23;;;0.83;;
15094;SDS011;7648;52.264;9.632;2023-04-24T14:26:58;0.87;;;0.87;;
15094;SDS011;7648;52.264;9.632;2023-04-24T14:31:00;0.83;;;0.83;;
15094;SDS011;7648;52.264;9.632;2023-04-24T14:35:02;0.80;;;0.80;;
15094;SDS011;7648;52.264;9.632;2023-04-24T14:39:06;1.23;;;1.23;;
15094;SDS011;7648;52.264;9.632;2023-04-24T14:43:08;1.13;;;1.13;;
15094;SDS011;7648;52.264;9.632;2023-04-24T14:47:10;1.53;;;1.43;;
15094;SDS011;7648;52.264;9.632;2023-04-24T14:51:12;1.73;;;1.63;;
15094;SDS011;7648;52.264;9.632;2023-04-24T14:55:15;2.73;;;1.77;;
15094;SDS011;7648;52.264;9.632;2023-04-24T14:59:17;3.10;;;1.53;;
15094;SDS011;7648;52.264;9.632;2023-04-24T15:03:19;6.97;;;2.27;;
15094;SDS011;7648;52.264;9.632;2023-04-24T15:07:21;3.37;;;2.03;;
15094;SDS011;7648;52.264;9.632;2023-04-24T15:11:25;1.90;;;1.80;;
15094;SDS011;7648;52.264;9.632;2023-04-24T15:15:27;2.23;;;2.10;;
15094;SDS011;7648;52.264;9.632;2023-04-24T15:19:29;2.17;;;1.90;;
15094;SDS011;7648;52.264;9.632;2023-04-24T15:23:32;2.73;;;2.07;;
15094;SDS011;7648;52.264;9.632;2023-04-24T15:27:41;2.27;;;2.07;;
15094;SDS011;7648;52.264;9.632;2023-04-24T15:31:44;2.40;;;2.20;;
15094;SDS011;7648;52.264;9.632;2023-04-24T15:35:46;2.57;;;1.97;;
15094;SDS011;7648;52.264;9.632;2023-04-24T15:39:48;4.23;;;2.60;;
15094;SDS011;7648;52.264;9.632;2023-04-24T15:43:52;2.57;;;2.43;;
15094;SDS011;7648;52.264;9.632;2023-04-24T15:47:54;2.70;;;2.50;;
15094;SDS011;7648;52.264;9.632;2023-04-24T15:51:56;3.63;;;2.73;;
15094;SDS011;7648;52.264;9.632;2023-04-24T15:55:58;3.00;;;2.80;;
15094;SDS011;7648;52.264;9.632;2023-04-24T16:00:02;3.13;;;2.73;;
15094;SDS011;7648;52.264;9.632;2023-04-24T16:04:11;3.23;;;2.97;;
15094;SDS011;7648;52.264;9.632;2023-04-24T16:08:13;2.97;;;2.70;;
15094;SDS011;7648;52.264;9.632;2023-04-24T16:12:15;3.60;;;2.60;;
15094;SDS011;7648;52.264;9.632;2023-04-24T16:16:18;3.17;;;2.77;;
15094;SDS011;7648;52.264;9.632;2023-04-24T16:20:20;4.07;;;2.73;;
15094;SDS011;7648;52.264;9.632;2023-04-24T16:24:24;2.50;;;2.30;;
15094;SDS011;7648;52.264;9.632;2023-04-24T16:28:26;3.30;;;2.80;;
15094;SDS011;7648;52.264;9.632;2023-04-24T16:32:29;2.93;;;2.73;;
15094;SDS011;7648;52.264;9.632;2023-04-24T16:36:31;4.73;;;2.90;;
15094;SDS011;7648;52.264;9.632;2023-04-24T16:40:33;3.07;;;2.77;;
15094;SDS011;7648;52.264;9.632;2023-04-24T16:44:35;3.90;;;3.00;;
15094;SDS011;7648;52.264;9.632;2023-04-24T16:48:39;3.77;;;3.37;;
15094;SDS011;7648;52.264;9.632;2023-04-24T16:52:41;2.70;;;2.27;;
15094;SDS011;7648;52.264;9.632;2023-04-24T16:56:43;3.37;;;2.70;;
15094;SDS011;7648;52.264;9.632;2023-04-24T17:00:45;3.80;;;2.63;;
15094;SDS011;7648;52.264;9.632;2023-04-24T17:04:49;3.10;;;2.40;;
15094;SDS011;7648;52.264;9.632;2023-04-24T17:08:50;2.90;;;2.60;;
15094;SDS011;7648;52.264;9.632;2023-04-24T17:12:52;2.70;;;2.40;;
15094;SDS011;7648;52.264;9.632;2023-04-24T17:16:54;2.70;;;2.00;;
15094;SDS011;7648;52.264;9.632;2023-04-24T17:20:57;1.73;;;1.63;;
15094;SDS011;7648;52.264;9.632;2023-04-24T17:24:59;1.60;;;1.60;;
15094;SDS011;7648;52.264;9.632;2023-04-24T17:29:01;1.80;;;1.70;;
15094;SDS011;7648;52.264;9.632;2023-04-24T17:33:03;1.40;;;1.40;;
15094;SDS011;7648;52.264;9.632;2023-04-24T17:37:06;1.43;;;1.43;;
15094;SDS011;7648;52.264;9.632;2023-04-24T17:41:08;1.93;;;1.83;;
15094;SDS011;7648;52.264;9.632;2023-04-24T17:45:11;2.37;;;1.70;;
15094;SDS011;7648;52.264;9.632;2023-04-24T17:49:12;2.67;;;1.93;;
15094;SDS011;7648;52.264;9.632;2023-04-24T17:53:16;1.73;;;1.50;;
15094;SDS011;7648;52.264;9.632;2023-04-24T17:57:19;1.90;;;1.40;;
15094;SDS011;7648;52.264;9.632;2023-04-24T18:01:20;1.47;;;1.37;;
15094;SDS011;7648;52.264;9.632;2023-04-24T18:05:23;1.50;;;1.43;;
15094;SDS011;7648;52.264;9.632;2023-04-24T18:09:26;3.40;;;1.47;;
15094;SDS011;7648;52.264;9.632;2023-04-24T18:13:28;1.30;;;1.30;;
15094;SDS011;7648;52.264;9.632;2023-04-24T18:17:30;1.73;;;1.63;;
15094;SDS011;7648;52.264;9.632;2023-04-24T18:21:31;1.10;;;1.10;;
15094;SDS011;7648;52.264;9.632;2023-04-24T18:25:35;1.60;;;1.50;;
15094;SDS011;7648;52.264;9.632;2023-04-24T18:29:36;1.30;;;1.20;;
15094;SDS011;7648;52.264;9.632;2023-04-24T18:33:38;1.67;;;1.57;;
15094;SDS011;7648;52.264;9.632;2023-04-24T18:37:40;1.40;;;1.27;;
15094;SDS011;7648;52.264;9.632;2023-04-24T18:41:45;3.00;;;2.33;;
15094;SDS011;7648;52.264;9.632;2023-04-24T18:45:47;1.33;;;1.33;;
15094;SDS011;7648;52.264;9.632;2023-04-24T18:49:49;2.57;;;1.40;;
15094;SDS011;7648;52.264;9.632;2023-04-24T18:53:51;4.00;;;1.73;;
15094;SDS011;7648;52.264;9.632;2023-04-24T18:57:54;1.67;;;1.30;;
15094;SDS011;7648;52.264;9.632;2023-04-24T19:01:56;1.40;;;1.30;;
15094;SDS011;7648;52.264;9.632;2023-04-24T19:05:58;1.57;;;1.47;;
15094;SDS011;7648;52.264;9.632;2023-04-24T19:10:00;2.23;;;1.93;;
15094;SDS011;7648;52.264;9.632;2023-04-24T19:14:03;1.77;;;1.60;;
15094;SDS011;7648;52.264;9.632;2023-04-24T19:18:06;1.60;;;1.50;;
15094;SDS011;7648;52.264;9.632;2023-04-24T19:22:08;1.70;;;1.60;;
15094;SDS011;7648;52.264;9.632;2023-04-24T19:26:10;2.50;;;2.20;;
15094;SDS011;7648;52.264;9.632;2023-04-24T19:30:14;2.03;;;1.80;;
15094;SDS011;7648;52.264;9.632;2023-04-24T19:34:16;4.17;;;2.00;;
15094;SDS011;7648;52.264;9.632;2023-04-24T19:38:18;1.97;;;1.87;;
15094;SDS011;7648;52.264;9.632;2023-04-24T19:42:20;3.57;;;1.97;;
15094;SDS011;7648;52.264;9.632;2023-04-24T19:46:23;1.90;;;1.80;;
15094;SDS011;7648;52.264;9.632;2023-04-24T19:50:25;2.97;;;1.70;;
15094;SDS011;7648;52.264;9.632;2023-04-24T19:54:27;2.77;;;1.70;;
15094;SDS011;7648;52.264;9.632;2023-04-24T19:58:44;2.80;;;2.20;;
15094;SDS011;7648;52.264;9.632;2023-04-24T20:02:47;3.50;;;2.17;;
15094;SDS011;7648;52.264;9.632;2023-04-24T20:06:49;4.53;;;2.27;;
15094;SDS011;7648;52.264;9.632;2023-04-24T20:10:51;3.50;;;2.40;;
15094;SDS011;7648;52.264;9.632;2023-04-24T20:14:53;3.70;;;1.70;;
15094;SDS011;7648;52.264;9.632;2023-04-24T20:18:56;2.27;;;1.80;;
15094;SDS011;7648;52.264;9.632;2023-04-24T20:22:58;3.73;;;2.00;;
15094;SDS011;7648;52.264;9.632;2023-04-24T20:27:00;3.13;;;1.80;;
15094;SDS011;7648;52.264;9.632;2023-04-24T20:31:02;2.40;;;2.20;;
15094;SDS011;7648;52.264;9.632;2023-04-24T20:35:06;4.00;;;1.97;;
15094;SDS011;7648;52.264;9.632;2023-04-24T20:39:08;3.00;;;2.30;;
15094;SDS011;7648;52.264;9.632;2023-04-24T20:43:11;3.97;;;2.70;;
15094;SDS011;7648;52.264;9.632;2023-04-24T20:47:13;4.50;;;2.27;;
15094;SDS011;7648;52.264;9.632;2023-04-24T20:51:16;4.40;;;2.30;;
15094;SDS011;7648;52.264;9.632;2023-04-24T20:55:18;3.80;;;3.20;;
15094;SDS011;7648;52.264;9.632;2023-04-24T20:59:20;4.00;;;2.20;;
15094;SDS011;7648;52.264;9.632;2023-04-24T21:03:22;2.20;;;1.90;;
15094;SDS011;7648;52.264;9.632;2023-04-24T21:07:25;3.73;;;2.40;;
15094;SDS011;7648;52.264;9.632;2023-04-24T21:11:27;3.23;;;2.03;;
15094;SDS011;7648;52.264;9.632;2023-04-24T21:15:29;6.83;;;2.37;;
15094;SDS011;7648;52.264;9.632;2023-04-24T21:19:31;7.47;;;2.77;;
15094;SDS011;7648;52.264;9.632;2023-04-24T21:23:34;3.43;;;2.53;;
15094;SDS011;7648;52.264;9.632;2023-04-24T21:27:36;3.53;;;2.63;;
15094;SDS011;7648;52.264;9.632;2023-04-24T21:31:38;3.03;;;2.33;;
15094;SDS011;7648;52.264;9.632;2023-04-24T21:35:40;3.37;;;3.07;;
15094;SDS011;7648;52.264;9.632;2023-04-24T21:39:43;3.27;;;3.03;;
15094;SDS011;7648;52.264;9.632;2023-04-24T21:43:45;3.53;;;2.53;;
15094;SDS011;7648;52.264;9.632;2023-04-24T21:47:47;5.97;;;3.00;;
15094;SDS011;7648;52.264;9.632;2023-04-24T21:51:49;4.50;;;2.50;;
15094;SDS011;7648;52.264;9.632;2023-04-24T21:55:52;7.17;;;3.10;;
15094;SDS011;7648;52.264;9.632;2023-04-24T21:59:54;3.60;;;2.87;;
15094;SDS011;7648;52.264;9.632;2023-04-24T22:03:56;3.07;;;2.83;;
15094;SDS011;7648;52.264;9.632;2023-04-24T22:07:57;4.57;;;2.57;;
15094;SDS011;7648;52.264;9.632;2023-04-24T22:12:01;6.70;;;3.43;;
15094;SDS011;7648;52.264;9.632;2023-04-24T22:16:03;5.10;;;2.60;;
15094;SDS011;7648;52.264;9.632;2023-04-24T22:20:05;4.97;;;2.40;;
15094;SDS011;7648;52.264;9.632;2023-04-24T22:24:08;3.13;;;2.70;;
15094;SDS011;7648;52.264;9.632;2023-04-24T22:28:11;4.30;;;2.77;;
15094;SDS011;7648;52.264;9.632;2023-04-24T22:32:13;6.70;;;2.90;;
15094;SDS011;7648;52.264;9.632;2023-04-24T22:36:15;3.20;;;2.93;;
15094;SDS011;7648;52.264;9.632;2023-04-24T22:40:17;3.47;;;2.93;;
15094;SDS011;7648;52.264;9.632;2023-04-24T22:44:21;3.53;;;3.23;;
15094;SDS011;7648;52.264;9.632;2023-04-24T22:48:23;5.17;;;2.63;;
15094;SDS011;7648;52.264;9.632;2023-04-24T22:52:25;5.27;;;3.00;;
15094;SDS011;7648;52.264;9.632;2023-04-24T22:56:27;5.07;;;3.70;;
15094;SDS011;7648;52.264;9.632;2023-04-24T23:00:32;4.80;;;3.17;;
15094;SDS011;7648;52.264;9.632;2023-04-24T23:04:34;5.70;;;3.10;;
15094;SDS011;7648;52.264;9.632;2023-04-24T23:08:35;4.93;;;3.50;;
15094;SDS011;7648;52.264;9.632;2023-04-24T23:12:37;3.73;;;3.43;;
15094;SDS011;7648;52.264;9.632;2023-04-24T23:16:40;6.80;;;3.17;;
15094;SDS011;7648;52.264;9.632;2023-04-24T23:20:44;5.63;;;3.20;;
15094;SDS011;7648;52.264;9.632;2023-04-24T23:24:46;3.83;;;3.00;;
15094;SDS011;7648;52.264;9.632;2023-04-24T23:28:48;3.93;;;3.10;;
15094;SDS011;7648;52.264;9.632;2023-04-24T23:32:51;3.77;;;3.03;;
15094;SDS011;7648;52.264;9.632;2023-04-24T23:36:53;5.50;;;3.80;;
15094;SDS011;7648;52.264;9.632;2023-04-24T23:40:55;3.00;;;2.80;;
15094;SDS011;7648;52.264;9.632;2023-04-24T23:44:57;3.23;;;2.90;;
15094;SDS011;7648;52.264;9.632;2023-04-24T23:49:00;4.03;;;2.80;;
15094;SDS011;7648;52.264;9.632;2023-04-24T23:53:03;9.53;;;2.97;;
15094;SDS011;7648;52.264;9.632;2023-04-24T23:57:05;4.90;;;2.83;;
